My Meet Scores
Hannah Dillenburg, St. Charles Gymnastics Academy - MyMeetScores.com
Top100 | Top Teams | Upcoming Meets | Completed Meets | Latest | Add Scores | Help| Support | Bookmark and Share

Hannah Dillenburg, St. Charles Gymnastics Academy
Personal Bests
LevelVault BarsBeamFloorAA
38.9009.075 8.2008.20034.375
49.3009.425 9.5509.17536.925
69.2759.275 9.6509.75037.475
AllLevels8.1508.500 7.9008.57533.125
Meet Scores
Date Meet Team Session Level Division Vault Bars Beam Floor AA
2019-03-15 Illinois State Championship Level 6,9,10 St. Charles Gymnastics Academy 10 6 Sr b 9.050 16 9.175 8 9.650 1 9.600 2T 37.475 5
2019-02-15 Women's Midwest Open St. Charles Gymnastics Academy 01 6 Junior B 8.700 11T 8.400 15 9.500 2T 9.525 5T 36.125 7
2019-01-25 Metroplex Challenge St. Charles Gymnastics Academy R05 6 Sr B 8.725 16 0.000 18T 9.250 7 9.600 4T 27.575 19
2019-01-11 St Jude Benefit Meet St. Charles Gymnastics Academy 2B 6 Sr A 8.350 12 8.250 11 9.025 6 9.625 2 35.250 5
2018-12-07 St. Nick Invite 2018 St. Charles Gymnastics Academy 2 6 SrA 8.700 10 8.550 6 9.475 1 9.350 2 36.075 3
2018-03-16 2018 Illinois Level 6, 9, 10 State Championships St. Charles Gymnastics Academy 09 6 Jr A 9.000 16T 9.150 7 8.400 22 9.750 1 36.300 15
2018-02-23 Kinetic Classic St. Charles Gymnastics Academy 9 6 Middle 9.275 10T 9.275 17 9.000 39T 9.450 20 37.000 17T
2018-02-16 Big Classic St. Charles Gymnastics Academy 1A 6 Junior C 8.575 12 0.000 13 9.250 7T 9.350 2T 27.175 13
2018-01-19 2018 SCEGA California Classic St. Charles Gymnastics Academy 1O 6 Junior A 9.250 5 9.025 7 8.775 11 9.275 9 36.325 7
2018-01-12 St Jude Benefit Meet St. Charles Gymnastics Academy 4C 6 JrB 9.000 5 9.000 7T 9.275 3 9.250 3 36.525 5
2017-12-14 2017 Women's Hawaiian Pineapple Classic St. Charles Gymnastics Academy 9A 6 Age11 8.950 9T 7.400 16 8.800 12 9.375 8 34.525 14
2017-12-01 Ultimate Wish Classic St. Charles Gymnastics Academy 9 6 JR 9.175 3 8.800 3 8.850 5 9.375 4 36.200 2
2017-11-17 SCGA Classic St. Charles Gymnastics Academy 3 6 JrB 9.150 8 8.850 3 8.525 10 9.225 7 35.750 6
2017-03-10 2017 Illinois Level 4 State Championships St. Charles Gymnastics Academy 4 4 Jr A 9.150 7T 9.050 13T 9.550 3T 8.925 17 36.675 8
2017-02-24 Kinetic Classic St. Charles Gymnastics Academy 5,6 4 All Ages 9.300 10 9.150 40T 9.200 49T 9.100 42T 36.750 19
2017-02-10 IGI Chicago Style Gymnastics Meet St. Charles Gymnastics Academy 621L 4 JrC 8.550 5 9.075 5 9.425 3 8.950 8 36.000 5
2017-01-20 2017 Bravo Classic St. Charles Gymnastics Academy 07B 4 10+yrs 9.000 4T 9.425 7T 9.325 11 9.175 8 36.925 6
2017-01-13 St Jude Benefit Meet St. Charles Gymnastics Academy 3A 4 Sr A 8.750 4 9.350 3 8.700 15 8.775 8 35.575 5
2016-12-15 2016 Hawaiian Pineapple Sanction St. Charles Gymnastics Academy 9A 4 Ages 10-11 8.700 7T 8.375 6T 9.375 1 9.050 5 35.500 3
2016-12-02 Ultimate Wish Classic St. Charles Gymnastics Academy 13 4 Sr A 9.025 1 8.950 2T 9.375 1 8.825 10 36.175 2
2016-03-10 2016 Illinois Level 4 State Meet St. Charles Gymnastics Academy All 4 Youth-A 8.600 20 7.825 28 8.550 30 8.950 21 33.925 27
2016-02-05 St. Valentines Classic St. Charles Gymnastics Academy 1A AllLevels All Ages 8.150 55T 8.500 35 7.900 49T 8.575 34T 33.125 40
2016-01-22 King Arthur Invitational St. Charles Gymnastics Academy S12 4 Jr.B 8.225 12 8.500 12 8.475 16 8.825 11 34.025 15
2016-01-08 St Jude Benefit Meet St. Charles Gymnastics Academy 4A 4 Jr B 8.500 11T 8.325 14 9.025 11T 8.575 8 34.425 9
2015-12-17 2015 Hawaiian Pineapple Classic St. Charles Gymnastics Academy 1A 4 Age 9 8.250 23T 8.200 22 8.000 31 8.925 11 33.375 24
2015-12-04 2015 Ultimate Wish Classic St. Charles Gymnastics Academy 7 4 All 8.450 41 7.950 56 8.850 32 8.750 44 34.000 49
2015-02-20 Midwest Open 2015 St. Charles Gymnastics Academy 3A 3 8 8.900 24 9.075 10 8.200 19 8.200 23 34.375 20
Get your scores on
a t-shirt, pin, or hoodie

www.lazysuits.com